Terminal Aerodrome Forecast
Issued by NWS

Home | Current Version | Previous Version | Text Only | Print | Product List | Glossary Off
Versions: 1 2 3 4 5 6 7 8 9 10 11 12 13 14 15 16 17 18 19 20 21 22 23 24 25 26 27 28 29 30 31 32 33

000
FTUS43 KABR 281700
TAFMBG
TAF
KMBG 281739Z 2818/2918 03016G22KT P6SM OVC015
     FM290300 05018G23KT P6SM OVC007=

USA.gov is the U.S. government's official web portal to all federal, state and local government web resources and services.